Time;durP1;ratioP1;P1;durP2;ratioP2;P2;SDS_P1;SDS_P2;PMS_P1;PMS_P2;Temp;Humidity;BMP_temperature;BMP_pressure;BME280_temperature;BME280_humidity;BME280_pressure;Samples;Min_cycle;Max_cycle;Signal;HPM_P1;HPM_P2
2022/06/17 00:01:30;;;;;;;4.57;4.28;;;;;;;17.95;67.33;102415.25;4884936;29;20044;-82
2022/06/17 00:03:56;;;;;;;5.28;4.50;;;;;;;17.93;67.37;102422.41;4883285;29;20072;-82
2022/06/17 00:06:24;;;;;;;6.38;4.97;;;;;;;17.92;67.49;102423.34;4882601;29;20324;-83
2022/06/17 00:08:52;;;;;;;5.38;4.35;;;;;;;17.90;67.65;102423.44;4881985;29;20085;-81
2022/06/17 00:11:47;;;;;;;5.47;5.03;;;;;;;17.88;67.93;102417.31;4881791;29;20063;-82
2022/06/17 00:14:21;;;;;;;5.53;5.10;;;;;;;17.87;68.10;102404.16;4870249;29;20052;-82
2022/06/17 00:16:47;;;;;;;4.90;4.50;;;;;;;17.85;68.10;102412.19;4882415;29;20033;-82
2022/06/17 00:19:18;;;;;;;5.72;5.07;;;;;;;17.84;68.17;102413.06;4879885;29;20289;-82
2022/06/17 00:21:47;;;;;;;5.43;4.38;;;;;;;17.82;68.19;102413.13;4866628;29;20204;-82
2022/06/17 00:24:21;;;;;;;5.05;4.60;;;;;;;17.81;68.28;102414.09;4865842;29;20055;-82
2022/06/17 00:26:46;;;;;;;6.40;4.50;;;;;;;17.79;68.16;102405.34;4881474;29;20037;-82
2022/06/17 00:29:15;;;;;;;5.40;4.90;;;;;;;17.78;67.97;102408.06;4863248;29;20039;-82
2022/06/17 00:31:41;;;;;;;4.65;4.35;;;;;;;17.76;68.39;102410.78;4882213;29;20351;-81
2022/06/17 00:34:07;;;;;;;4.97;4.57;;;;;;;17.74;68.42;102399.41;4865299;29;20017;-82
2022/06/17 00:36:33;;;;;;;4.82;4.43;;;;;;;17.73;68.42;102399.47;4882544;29;20047;-81
2022/06/17 00:38:59;;;;;;;5.00;4.60;;;;;;;17.71;68.36;102399.53;4882869;29;20316;-82
2022/06/17 00:41:32;;;;;;;5.53;5.13;;;;;;;17.70;68.78;102396.94;4882960;29;20371;-82
2022/06/17 00:44:00;;;;;;;5.03;4.65;;;;;;;17.70;68.50;102399.59;4882247;29;20052;-82
2022/06/17 00:46:52;;;;;;;5.43;4.90;;;;;;;17.68;68.77;102406.75;4885913;29;20052;-82
2022/06/17 00:49:28;;;;;;;5.43;5.03;;;;;;;17.65;68.63;102405.13;4859441;29;20280;-81
2022/06/17 00:52:02;;;;;;;5.25;4.80;;;;;;;17.63;68.82;102396.38;4884723;29;20316;-81
2022/06/17 00:54:37;;;;;;;5.30;4.90;;;;;;;17.62;68.86;102389.34;4869152;29;20336;-82
2022/06/17 00:57:36;;;;;;;5.60;5.18;;;;;;;17.60;69.31;102399.16;4885858;29;20228;-81
2022/06/17 01:00:04;;;;;;;4.80;4.50;;;;;;;17.59;69.20;102400.97;4897115;29;20181;-82
2022/06/17 01:02:35;;;;;;;5.15;4.65;;;;;;;17.58;69.35;102393.09;4888592;29;20036;-82
2022/06/17 01:05:03;;;;;;;6.60;5.32;;;;;;;17.56;69.19;102392.31;4892001;29;20145;-81
2022/06/17 01:07:36;;;;;;;5.90;4.88;;;;;;;17.54;69.22;102405.59;4901531;29;20108;-83
2022/06/17 01:10:09;;;;;;;5.43;4.80;;;;;;;17.54;69.39;102405.59;4893481;29;20049;-82
2022/06/17 01:12:43;;;;;;;5.13;4.47;;;;;;;17.53;69.36;102403.03;4887120;29;20033;-81
2022/06/17 01:15:14;;;;;;;5.00;4.57;;;;;;;17.53;69.39;102406.53;4887187;29;20035;-82
2022/06/17 01:17:40;;;;;;;5.40;4.60;;;;;;;17.51;69.41;102403.09;4880370;29;20285;-81
2022/06/17 01:20:08;;;;;;;5.03;4.55;;;;;;;17.50;69.22;102405.81;4878706;29;20060;-82
2022/06/17 01:22:38;;;;;;;5.43;5.03;;;;;;;17.49;69.51;102401.44;4885806;29;20197;-82
2022/06/17 01:25:09;;;;;;;7.00;5.38;;;;;;;17.46;69.33;102398.00;4885436;29;20289;-81
2022/06/17 01:27:38;;;;;;;5.60;5.05;;;;;;;17.46;69.55;102397.13;4894620;29;20092;-82
2022/06/17 01:30:07;;;;;;;5.38;4.90;;;;;;;17.44;69.61;102399.88;4899643;29;20247;-81
2022/06/17 01:32:43;;;;;;;5.63;5.13;;;;;;;17.42;69.86;102399.06;4887033;29;20036;-82
2022/06/17 01:35:09;;;;;;;6.03;5.38;;;;;;;17.41;69.95;102402.66;4883572;29;20404;-81
2022/06/17 01:37:35;;;;;;;5.93;5.13;;;;;;;17.41;70.10;102399.16;4871470;29;20037;-81
2022/06/17 01:40:01;;;;;;;6.18;5.40;;;;;;;17.39;70.13;102388.63;4896889;29;20238;-81
2022/06/17 01:42:28;;;;;;;5.82;5.32;;;;;;;17.37;70.16;102393.13;4902810;29;20240;-81
2022/06/17 01:44:54;;;;;;;5.95;5.45;;;;;;;17.37;70.24;102392.25;4859442;29;20033;-81
2022/06/17 01:47:24;;;;;;;5.65;5.18;;;;;;;17.36;70.22;102382.59;4881982;29;20106;-81
2022/06/17 01:49:57;;;;;;;5.05;4.75;;;;;;;17.34;70.04;102366.78;4885445;29;20085;-81
2022/06/17 01:52:27;;;;;;;5.50;5.10;;;;;;;17.34;70.07;102373.88;4882804;29;20056;-81
2022/06/17 01:54:57;;;;;;;5.38;4.90;;;;;;;17.33;70.19;102377.44;4886324;29;20055;-81
2022/06/17 01:57:29;;;;;;;5.40;5.00;;;;;;;17.32;70.39;102379.22;4888147;29;20244;-81
2022/06/17 01:59:59;;;;;;;5.75;5.22;;;;;;;17.31;70.47;102377.50;4876936;29;20044;-81
2022/06/17 02:02:27;;;;;;;6.35;4.93;;;;;;;17.33;70.55;102385.38;4869337;29;20064;-81
2022/06/17 02:04:58;;;;;;;5.80;4.97;;;;;;;17.32;70.32;102387.19;4884513;29;20040;-81
2022/06/17 02:07:31;;;;;;;5.28;4.78;;;;;;;17.31;70.52;102396.03;4880308;29;20045;-81
2022/06/17 02:09:56;;;;;;;5.85;4.55;;;;;;;17.31;70.73;102387.25;4866308;29;20044;-81
2022/06/17 02:12:24;;;;;;;5.53;4.90;;;;;;;17.30;70.81;102389.03;4868003;29;20139;-81
2022/06/17 02:14:52;;;;;;;4.65;4.35;;;;;;;17.30;71.04;102385.50;4876534;29;20400;-77
2022/06/17 02:17:18;;;;;;;4.80;4.40;;;;;;;17.30;71.05;102394.34;4897639;29;20029;-78
2022/06/17 02:19:45;;;;;;;4.93;4.53;;;;;;;17.30;71.05;102393.44;4885761;29;20277;-77
2022/06/17 02:22:23;;;;;;;4.75;4.43;;;;;;;17.29;70.67;102394.41;4884146;29;20069;-77
2022/06/17 02:24:51;;;;;;;4.72;4.32;;;;;;;17.28;70.67;102385.56;4884778;29;20056;-77
2022/06/17 02:27:18;;;;;;;4.93;4.53;;;;;;;17.27;70.99;102392.66;4887486;29;20028;-77
2022/06/17 02:29:44;;;;;;;5.30;4.80;;;;;;;17.26;70.49;102390.97;4901509;29;20382;-77
2022/06/17 02:32:11;;;;;;;5.00;4.60;;;;;;;17.26;70.80;102390.97;4884378;29;20060;-78
2022/06/17 02:34:47;;;;;;;5.10;4.70;;;;;;;17.25;70.92;102389.22;4884526;29;20040;-77
2022/06/17 02:37:16;;;;;;;5.18;4.70;;;;;;;17.25;70.80;102391.03;4884639;29;20372;-77
2022/06/17 02:39:45;;;;;;;5.20;4.72;;;;;;;17.24;70.72;102392.78;4885391;29;20065;-77
2022/06/17 02:42:20;;;;;;;6.53;4.45;;;;;;;17.24;70.79;102397.22;4883941;29;20104;-77
2022/06/17 02:44:51;;;;;;;5.22;4.72;;;;;;;17.23;70.76;102393.72;4884936;29;20228;-77
2022/06/17 02:47:17;;;;;;;4.70;4.30;;;;;;;17.23;70.91;102400.81;4884004;29;20032;-77
2022/06/17 02:49:42;;;;;;;5.78;5.20;;;;;;;17.21;70.79;102398.25;4885279;29;20100;-77
2022/06/17 02:52:15;;;;;;;5.30;4.85;;;;;;;17.21;70.94;102397.38;4882375;29;20055;-77
2022/06/17 02:54:46;;;;;;;4.75;4.35;;;;;;;17.22;70.49;102399.94;4883707;29;20051;-78
2022/06/17 02:57:19;;;;;;;5.90;5.22;;;;;;;17.19;70.83;102400.09;4881906;29;20173;-78
2022/06/17 02:59:50;;;;;;;6.47;4.35;;;;;;;17.19;70.54;102392.16;4876597;29;20033;-79
2022/06/17 03:02:25;;;;;;;4.60;4.20;;;;;;;17.18;70.73;102393.06;4861384;29;20120;-79
2022/06/17 03:04:53;;;;;;;5.18;4.68;;;;;;;17.18;70.67;102390.41;4882471;29;20265;-79
2022/06/17 03:07:20;;;;;;;4.25;3.95;;;;;;;17.18;70.73;102390.41;4866391;29;20068;-79
2022/06/17 03:09:47;;;;;;;4.78;4.38;;;;;;;17.19;70.62;102393.91;4882938;29;20239;-79
2022/06/17 03:12:17;;;;;;;5.40;4.25;;;;;;;17.19;70.55;102384.22;4844007;29;20037;-79
2022/06/17 03:14:58;;;;;;;4.55;4.10;;;;;;;17.20;70.18;102385.91;4882825;29;20313;-79
2022/06/17 03:17:24;;;;;;;4.95;4.55;;;;;;;17.21;70.00;102389.44;4874249;29;20041;-78
2022/06/17 03:19:53;;;;;;;5.38;4.47;;;;;;;17.20;70.02;102388.56;4881961;29;20040;-79
2022/06/17 03:22:18;;;;;;;4.65;3.95;;;;;;;17.21;69.66;102389.44;4883474;29;20045;-79
2022/06/17 03:25:02;;;;;;;6.03;4.20;;;;;;;17.23;69.60;102390.22;4865448;29;20028;-79
2022/06/17 03:28:03;;;;;;;4.60;4.20;;;;;;;17.22;69.46;102389.34;4865184;29;20024;-80
2022/06/17 03:30:37;;;;;;;4.03;3.72;;;;;;;17.22;69.07;102388.50;4882401;29;20021;-79
2022/06/17 03:33:18;;;;;;;4.10;3.80;;;;;;;17.21;69.10;102387.66;4863875;29;20340;-80
2022/06/17 03:35:45;;;;;;;3.92;3.55;;;;;;;17.23;68.86;102382.28;4878265;29;20043;-80
2022/06/17 03:38:20;;;;;;;3.95;3.53;;;;;;;17.23;68.88;102382.28;4877271;29;20353;-80
2022/06/17 03:40:51;;;;;;;4.00;3.70;;;;;;;17.23;68.69;102377.00;4878468;29;20043;-80
2022/06/17 03:43:37;;;;;;;3.42;3.13;;;;;;;17.22;69.08;102370.81;4881444;29;20048;-80
2022/06/17 03:46:06;;;;;;;4.05;3.63;;;;;;;17.23;68.41;102377.00;4879807;29;20408;-80
2022/06/17 03:48:45;;;;;;;4.00;3.70;;;;;;;17.22;68.46;102381.41;4864077;29;20112;-79
2022/06/17 03:51:14;;;;;;;3.90;3.60;;;;;;;17.23;68.42;102387.59;4880625;29;20480;-80
2022/06/17 03:53:40;;;;;;;3.90;3.60;;;;;;;17.24;68.32;102376.06;4880804;29;20044;-80
2022/06/17 03:56:18;;;;;;;4.30;4.00;;;;;;;17.23;68.18;102375.19;4861510;29;20041;-80
2022/06/17 03:58:44;;;;;;;3.40;3.20;;;;;;;17.23;68.10;102377.00;4876210;29;20120;-79
2022/06/17 04:01:28;;;;;;;3.88;3.58;;;;;;;17.24;68.03;102376.06;4877058;29;20051;-80
2022/06/17 04:03:57;;;;;;;4.00;3.70;;;;;;;17.22;68.02;102365.53;4886635;29;20045;-80
2022/06/17 04:06:28;;;;;;;3.92;3.63;;;;;;;17.23;68.11;102369.06;4879232;29;20080;-80
2022/06/17 04:08:59;;;;;;;3.95;3.53;;;;;;;17.23;67.89;102367.25;4877914;29;20315;-79
2022/06/17 04:11:29;;;;;;;4.22;3.35;;;;;;;17.23;68.12;102372.56;4872528;29;20056;-79
2022/06/17 04:13:58;;;;;;;4.72;3.45;;;;;;;17.22;68.04;102373.47;4892981;29;20291;-79
2022/06/17 04:16:27;;;;;;;4.50;3.55;;;;;;;17.23;67.88;102364.63;4884278;29;20048;-79
2022/06/17 04:18:52;;;;;;;4.28;3.88;;;;;;;17.23;67.80;102366.41;4881464;29;20076;-79
2022/06/17 04:21:18;;;;;;;4.07;3.70;;;;;;;17.23;68.02;102364.63;4860242;29;20112;-79
2022/06/17 04:23:47;;;;;;;3.97;3.67;;;;;;;17.23;67.74;102364.63;4839307;29;20073;-80
2022/06/17 04:26:33;;;;;;;4.22;3.75;;;;;;;17.23;67.99;102369.06;4880750;29;20049;-80
2022/06/17 04:29:04;;;;;;;4.00;3.63;;;;;;;17.23;67.61;102369.06;4880767;29;20059;-79
2022/06/17 04:31:31;;;;;;;3.58;3.28;;;;;;;17.23;67.67;102364.63;4881358;29;20061;-79
2022/06/17 04:34:13;;;;;;;3.88;3.50;;;;;;;17.23;67.86;102361.97;4864417;29;20052;-79
2022/06/17 04:36:46;;;;;;;4.45;3.35;;;;;;;17.22;67.56;102364.69;4896851;29;20205;-79
2022/06/17 04:39:28;;;;;;;3.85;3.55;;;;;;;17.23;67.46;102356.66;4890760;29;20249;-79
2022/06/17 04:41:57;;;;;;;3.67;3.38;;;;;;;17.22;67.60;102362.88;4862591;29;20037;-80
2022/06/17 04:44:22;;;;;;;3.80;3.50;;;;;;;17.23;67.42;102354.03;4863995;29;20240;-79
2022/06/17 04:46:58;;;;;;;3.22;3.03;;;;;;;17.24;67.47;102352.22;4881785;29;20049;-80
2022/06/17 04:49:28;;;;;;;3.95;3.65;;;;;;;17.24;67.89;102354.88;4879790;29;20217;-79
2022/06/17 04:52:00;;;;;;;4.78;3.75;;;;;;;17.23;67.81;102356.66;4881019;29;20374;-80
2022/06/17 04:54:28;;;;;;;4.30;3.90;;;;;;;17.25;67.95;102367.19;4878149;29;20108;-79
2022/06/17 04:56:56;;;;;;;5.85;3.92;;;;;;;17.24;68.16;102366.31;4897922;29;20036;-79
2022/06/17 04:59:31;;;;;;;4.50;4.10;;;;;;;17.25;68.16;102353.97;4899455;29;20040;-79
2022/06/17 05:01:58;;;;;;;6.20;3.80;;;;;;;17.24;68.34;102350.44;4899756;29;20382;-80
2022/06/17 05:04:24;;;;;;;3.83;3.45;;;;;;;17.25;68.18;102338.06;4882677;29;20335;-79
2022/06/17 05:06:49;;;;;;;4.13;3.72;;;;;;;17.26;68.01;102345.06;4894153;29;20371;-79
2022/06/17 05:09:37;;;;;;;3.40;3.20;;;;;;;17.26;68.07;102339.78;4863728;29;20041;-79
2022/06/17 05:12:22;;;;;;;4.85;4.00;;;;;;;17.26;68.09;102342.41;4879197;29;20065;-79
2022/06/17 05:15:11;;;;;;;4.30;3.88;;;;;;;17.26;68.00;102332.72;4881435;29;20040;-79
2022/06/17 05:17:38;;;;;;;3.92;3.63;;;;;;;17.26;68.52;102340.66;4887745;29;20079;-79
2022/06/17 05:20:05;;;;;;;3.88;3.58;;;;;;;17.27;68.09;102334.41;4886078;29;20440;-79
2022/06/17 05:23:04;;;;;;;4.30;3.90;;;;;;;17.27;68.08;102333.56;4880867;29;20051;-79
2022/06/17 05:25:33;;;;;;;5.05;3.65;;;;;;;17.29;67.84;102325.56;4839777;29;20111;-79
2022/06/17 05:27:58;;;;;;;4.00;3.67;;;;;;;17.29;68.05;102322.91;4882142;29;20100;-79
2022/06/17 05:30:24;;;;;;;5.22;3.67;;;;;;;17.29;68.07;102320.25;4891600;29;20083;-79
2022/06/17 05:32:52;;;;;;;5.10;4.60;;;;;;;17.30;68.57;102327.25;4882796;29;20056;-79
2022/06/17 05:35:19;;;;;;;4.20;3.90;;;;;;;17.31;68.89;102323.69;4866931;29;20040;-79
2022/06/17 05:37:45;;;;;;;5.10;4.60;;;;;;;17.32;68.75;102335.97;4884123;29;20510;-80
2022/06/17 05:40:11;;;;;;;4.90;4.40;;;;;;;17.33;69.13;102340.38;4883770;29;20060;-79
2022/06/17 05:42:38;;;;;;;4.40;4.03;;;;;;;17.32;69.21;102328.94;4884605;29;20388;-79
2022/06/17 05:45:05;;;;;;;5.57;4.25;;;;;;;17.34;69.36;102328.84;4883329;29;20044;-79
2022/06/17 05:47:30;;;;;;;6.25;5.05;;;;;;;17.35;69.42;102336.72;4866010;29;20037;-79
2022/06/17 05:49:56;;;;;;;4.63;3.88;;;;;;;17.36;69.33;102343.75;4883256;29;20225;-80
2022/06/17 05:52:21;;;;;;;7.10;5.07;;;;;;;17.37;69.55;102340.16;4884912;29;20114;-79
2022/06/17 05:54:47;;;;;;;5.25;4.38;;;;;;;17.38;69.59;102341.88;4884288;29;20056;-79
2022/06/17 05:57:13;;;;;;;5.10;4.70;;;;;;;17.40;69.57;102332.06;4883880;29;20048;-79
2022/06/17 05:59:38;;;;;;;6.93;4.32;;;;;;;17.42;69.19;102318.75;4884243;29;20089;-79
2022/06/17 06:02:04;;;;;;;5.30;4.80;;;;;;;17.42;69.34;102316.97;4883407;29;20418;-79
2022/06/17 06:04:31;;;;;;;8.38;4.55;;;;;;;17.44;69.14;102309.84;4868669;29;20059;-79
2022/06/17 06:06:57;;;;;;;4.88;4.47;;;;;;;17.47;69.37;102308.81;4868311;29;20033;-80
2022/06/17 06:09:22;;;;;;;8.15;5.03;;;;;;;17.48;69.30;102305.22;4867654;29;20028;-79
2022/06/17 06:11:47;;;;;;;4.93;4.53;;;;;;;17.51;69.34;102313.03;4868022;29;20041;-79
2022/06/17 06:14:13;;;;;;;6.97;4.57;;;;;;;17.53;69.38;102307.66;4868589;29;20037;-79
2022/06/17 06:16:38;;;;;;;5.47;4.97;;;;;;;17.55;69.30;102297.84;4856603;29;20153;-79
2022/06/17 06:19:04;;;;;;;6.43;4.47;;;;;;;17.57;69.11;102298.63;4852136;29;20033;-79
2022/06/17 06:21:30;;;;;;;7.22;4.88;;;;;;;17.59;69.40;102304.72;4882849;29;20036;-80
2022/06/17 06:23:56;;;;;;;9.32;4.80;;;;;;;17.61;69.59;102302.88;4884802;29;20055;-80
2022/06/17 06:26:23;;;;;;;4.60;4.05;;;;;;;17.64;69.67;102306.25;4886455;29;20355;-79
2022/06/17 06:28:48;;;;;;;92.90;7.97;;;;;;;17.65;69.42;102304.44;4882939;29;20039;-79
2022/06/17 06:31:20;;;;;;;16.35;5.03;;;;;;;17.68;69.14;102303.44;4867282;29;20064;-79
2022/06/17 06:33:45;;;;;;;5.75;4.65;;;;;;;17.70;69.25;102305.09;4865271;29;20035;-80
2022/06/17 06:36:10;;;;;;;6.30;4.60;;;;;;;17.72;68.96;102302.34;4886709;29;20113;-79
2022/06/17 06:38:36;;;;;;;6.47;4.70;;;;;;;17.75;69.02;102310.16;4867103;29;20029;-80
2022/06/17 06:41:02;;;;;;;7.30;4.53;;;;;;;17.76;69.02;102303.94;4882199;29;20029;-80
2022/06/17 06:43:28;;;;;;;5.20;4.80;;;;;;;17.76;68.97;102304.78;4880746;29;20100;-79
2022/06/17 06:45:53;;;;;;;8.40;5.07;;;;;;;17.78;69.28;102310.03;4881587;29;20075;-79
2022/06/17 06:48:22;;;;;;;7.20;5.15;;;;;;;17.80;69.53;102324.06;4890385;29;20053;-80
2022/06/17 06:50:48;;;;;;;7.25;5.20;;;;;;;17.83;69.37;102322.13;4885547;29;20036;-79
2022/06/17 06:53:13;;;;;;;7.22;4.90;;;;;;;17.85;69.28;102311.47;4883266;29;20420;-79
2022/06/17 06:55:39;;;;;;;7.22;4.68;;;;;;;17.87;69.22;102319.38;4869040;29;20040;-79
2022/06/17 06:58:14;;;;;;;4.25;3.85;;;;;;;17.90;69.29;102328.03;4895585;29;20332;-80
2022/06/17 07:00:46;;;;;;;4.32;3.90;;;;;;;17.95;68.98;102322.50;4885650;29;20112;-79
2022/06/17 07:03:12;;;;;;;8.55;3.97;;;;;;;17.97;68.74;102313.56;4886931;29;20036;-82
2022/06/17 07:05:41;;;;;;;11.10;5.15;;;;;;;17.99;68.84;102314.31;4851484;29;20049;-79
2022/06/17 07:08:09;;;;;;;4.10;3.80;;;;;;;18.03;69.11;102307.09;4894477;29;20035;-79
2022/06/17 07:10:35;;;;;;;3.78;3.47;;;;;;;18.08;68.39;102302.44;4870116;29;20063;-80
2022/06/17 07:13:02;;;;;;;3.78;3.45;;;;;;;18.11;68.28;102304.91;4884280;29;20028;-79
2022/06/17 07:15:28;;;;;;;6.07;3.80;;;;;;;18.16;68.36;102312.63;4872404;29;20033;-79
2022/06/17 07:17:55;;;;;;;5.35;3.58;;;;;;;18.20;68.46;102328.31;4874617;29;20071;-80
2022/06/17 07:20:21;;;;;;;5.25;4.30;;;;;;;18.25;68.55;102335.19;4863661;29;20446;-79
2022/06/17 07:22:47;;;;;;;5.13;3.22;;;;;;;18.29;68.19;102334.97;4872735;29;20323;-79
2022/06/17 07:25:12;;;;;;;3.97;3.58;;;;;;;18.34;68.20;102334.75;4867467;29;20042;-79
2022/06/17 07:27:38;;;;;;;5.30;3.47;;;;;;;18.38;67.41;102342.44;4872965;29;20045;-80
2022/06/17 07:30:03;;;;;;;6.60;3.47;;;;;;;18.44;67.08;102341.28;4873552;29;20373;-79
2022/06/17 07:32:29;;;;;;;3.17;2.95;;;;;;;18.49;66.68;102335.75;4882527;29;20104;-79
2022/06/17 07:34:54;;;;;;;6.38;3.55;;;;;;;18.53;66.37;102337.31;4848745;29;20045;-79
2022/06/17 07:40:04;;;;;;;2.38;2.20;;;;;;;18.63;66.33;102333.28;4873897;29;20047;-79
2022/06/17 07:42:39;;;;;;;3.22;2.63;;;;;;;18.68;66.21;102333.00;4874618;29;20304;-79
2022/06/17 07:45:12;;;;;;;5.80;2.80;;;;;;;18.71;66.15;102328.41;4861826;29;20052;-80
2022/06/17 07:47:39;;;;;;;3.65;2.60;;;;;;;18.77;66.29;102324.56;4870230;29;20370;-79
2022/06/17 07:50:06;;;;;;;4.50;2.67;;;;;;;18.83;65.99;102320.78;4859441;29;20041;-80
2022/06/17 07:52:32;;;;;;;5.30;2.38;;;;;;;18.89;65.93;102312.50;4871843;29;20108;-79
2022/06/17 07:54:57;;;;;;;4.20;2.60;;;;;;;18.94;65.47;102319.28;4860701;29;20056;-79
2022/06/17 07:57:23;;;;;;;2.40;2.20;;;;;;;18.99;65.21;102325.22;4868463;29;20093;-79
2022/06/17 07:59:48;;;;;;;4.57;2.70;;;;;;;19.04;65.07;102324.97;4855662;29;20262;-79
2022/06/17 08:02:14;;;;;;;3.78;2.53;;;;;;;19.09;64.87;102325.59;4879963;29;20089;-79
2022/06/17 08:04:40;;;;;;;4.10;2.47;;;;;;;19.15;64.85;102330.56;4848099;29;20052;-79
2022/06/17 08:07:06;;;;;;;7.88;2.72;;;;;;;19.20;63.63;102335.63;4856004;29;20034;-79
2022/06/17 08:09:31;;;;;;;2.88;2.22;;;;;;;19.27;64.29;102328.22;4859514;29;20328;-79
2022/06/17 08:11:57;;;;;;;2.20;2.00;;;;;;;19.32;64.12;102327.03;4883371;29;20436;-79
2022/06/17 08:14:22;;;;;;;7.60;2.50;;;;;;;19.36;63.58;102333.03;4839539;29;20018;-80
2022/06/17 08:16:47;;;;;;;4.70;2.60;;;;;;;19.43;63.84;102339.72;4881238;29;20045;-79
2022/06/17 08:19:13;;;;;;;6.30;2.47;;;;;;;19.49;62.60;102339.38;4863085;29;20041;-80
2022/06/17 08:21:38;;;;;;;5.50;2.78;;;;;;;19.54;63.27;102339.13;4850376;29;20076;-79
2022/06/17 08:24:04;;;;;;;4.22;2.40;;;;;;;19.60;62.06;102336.13;4839632;29;20064;-79
2022/06/17 08:26:29;;;;;;;6.13;2.97;;;;;;;19.63;61.88;102330.66;4870847;29;20264;-80
2022/06/17 08:28:55;;;;;;;6.97;2.70;;;;;;;19.65;62.17;102326.09;4874501;29;20312;-79
2022/06/17 08:31:20;;;;;;;2.65;2.30;;;;;;;19.68;62.33;102325.94;4854358;29;20041;-79
2022/06/17 08:33:46;;;;;;;3.50;2.20;;;;;;;19.73;62.97;102336.34;4888317;29;20048;-79
2022/06/17 08:36:15;;;;;;;3.92;2.60;;;;;;;19.80;61.89;102334.19;4862874;29;20104;-79
2022/06/17 08:38:47;;;;;;;4.10;2.53;;;;;;;19.85;62.12;102346.28;4872178;29;20264;-79
2022/06/17 08:41:27;;;;;;;9.75;3.10;;;;;;;19.92;61.50;102349.47;4857688;29;20081;-80
2022/06/17 08:44:15;;;;;;;4.53;3.00;;;;;;;19.98;61.52;102346.44;4879661;29;20045;-79
2022/06/17 08:47:08;;;;;;;8.50;3.00;;;;;;;20.01;61.10;102342.75;4867629;29;20331;-79
2022/06/17 08:49:43;;;;;;;5.22;3.17;;;;;;;20.06;61.36;102333.56;4869107;29;20252;-80
2022/06/17 08:52:19;;;;;;;2.55;2.35;;;;;;;20.11;61.88;102344.81;4874655;29;20116;-79
2022/06/17 08:55:23;;;;;;;4.00;2.53;;;;;;;20.18;62.06;102333.81;4882647;29;20044;-79
2022/06/17 08:58:01;;;;;;;3.80;2.45;;;;;;;20.26;61.95;102334.22;4861320;29;20037;-79
2022/06/17 09:00:39;;;;;;;2.33;2.10;;;;;;;20.31;61.46;102338.31;4879250;29;20040;-79
2022/06/17 09:03:44;;;;;;;6.18;2.60;;;;;;;20.41;61.81;102343.09;4880775;29;20032;-80
2022/06/17 09:06:12;;;;;;;3.92;2.72;;;;;;;20.46;60.90;102346.38;4871645;29;20041;-79
2022/06/17 09:08:58;;;;;;;4.13;2.20;;;;;;;20.50;61.46;102340.78;4889207;29;20256;-79
2022/06/17 09:11:35;;;;;;;4.55;2.33;;;;;;;20.58;61.77;102343.00;4868981;29;20061;-80
2022/06/17 09:14:06;;;;;;;4.30;2.55;;;;;;;20.68;59.35;102352.19;4883528;29;20036;-79
2022/06/17 09:16:54;;;;;;;2.90;2.53;;;;;;;20.74;59.55;102340.31;4882890;29;20231;-79
2022/06/17 09:19:28;;;;;;;3.40;2.40;;;;;;;20.82;60.52;102348.66;4876737;29;20096;-80
2022/06/17 09:22:00;;;;;;;6.30;2.35;;;;;;;20.93;60.19;102355.16;4873314;29;20280;-80
2022/06/17 09:24:31;;;;;;;3.03;2.53;;;;;;;20.99;59.97;102350.34;4866332;29;20029;-79
2022/06/17 09:27:11;;;;;;;4.75;2.30;;;;;;;21.06;59.16;102348.97;4875675;29;20237;-79
2022/06/17 09:29:38;;;;;;;4.95;2.40;;;;;;;21.12;58.96;102339.78;4886289;29;20049;-79
2022/06/17 09:32:16;;;;;;;5.75;2.35;;;;;;;21.17;59.07;102344.81;4877254;29;20241;-80
2022/06/17 09:34:49;;;;;;;7.28;2.55;;;;;;;21.23;58.87;102341.78;4877434;29;20041;-79
2022/06/17 09:37:24;;;;;;;2.20;2.00;;;;;;;21.27;58.80;102335.31;4868520;29;20269;-80
2022/06/17 09:39:58;;;;;;;9.88;2.75;;;;;;;21.32;59.16;102337.66;4884234;29;20108;-79
2022/06/17 09:42:33;;;;;;;4.10;2.10;;;;;;;21.36;58.85;102339.22;4878922;29;20266;-79
2022/06/17 09:45:04;;;;;;;4.10;2.40;;;;;;;21.38;58.45;102330.16;4889044;29;20036;-79
2022/06/17 09:47:57;;;;;;;2.38;2.10;;;;;;;21.43;58.89;102327.22;4854197;29;20032;-80
2022/06/17 09:50:31;;;;;;;4.00;2.30;;;;;;;21.50;59.16;102325.88;4891940;29;20037;-80
2022/06/17 09:53:02;;;;;;;3.80;2.40;;;;;;;21.59;59.05;102316.44;4878603;29;20041;-79
2022/06/17 09:55:37;;;;;;;3.38;2.28;;;;;;;21.70;59.02;102321.94;4876801;29;20374;-80
2022/06/17 09:58:14;;;;;;;5.15;2.47;;;;;;;21.76;56.62;102313.56;4878546;29;20033;-79
2022/06/17 10:00:45;;;;;;;2.67;2.47;;;;;;;21.82;57.54;102320.28;4875019;29;20075;-79
2022/06/17 10:03:29;;;;;;;4.20;2.17;;;;;;;21.86;57.74;102316.47;4879821;29;20032;-80
2022/06/17 10:06:00;;;;;;;6.15;2.70;;;;;;;21.89;56.05;102313.59;4883225;29;20374;-79
2022/06/17 10:08:39;;;;;;;3.30;2.60;;;;;;;21.94;56.28;102306.16;4876995;29;20056;-79
2022/06/17 10:11:10;;;;;;;5.50;2.63;;;;;;;22.01;56.92;102306.59;4893633;29;20052;-79
2022/06/17 10:13:47;;;;;;;3.00;2.45;;;;;;;22.05;57.05;102297.47;4881036;29;20088;-80
2022/06/17 10:20:02;;;;;;;6.38;2.97;;;;;;;22.18;55.73;102297.50;4880806;29;20232;-79
2022/06/17 10:22:57;;;;;;;3.28;2.95;;;;;;;22.20;55.63;102293.75;4857723;29;20072;-79
2022/06/17 10:25:35;;;;;;;3.65;2.78;;;;;;;22.28;56.68;102295.94;4881850;29;20067;-80
2022/06/17 10:28:10;;;;;;;2.50;2.30;;;;;;;22.35;56.93;102296.38;4874873;29;20044;-79
2022/06/17 10:30:59;;;;;;;5.90;3.00;;;;;;;22.39;57.55;102292.53;4882762;29;20366;-79
2022/06/17 10:33:29;;;;;;;4.13;3.55;;;;;;;22.44;55.43;102295.75;4865373;29;20021;-79
2022/06/17 10:35:55;;;;;;;3.40;3.08;;;;;;;22.47;55.59;102289.38;4882785;29;20044;-79
2022/06/17 10:38:25;;;;;;;5.22;3.08;;;;;;;22.52;55.91;102282.75;4865764;29;20104;-79
2022/06/17 10:40:51;;;;;;;4.80;3.03;;;;;;;22.56;55.96;102281.56;4883436;29;20298;-79
2022/06/17 10:43:23;;;;;;;4.13;3.17;;;;;;;22.64;55.44;102278.38;4874658;29;20052;-80
2022/06/17 10:45:51;;;;;;;5.15;3.60;;;;;;;22.72;55.82;102272.47;4883196;29;20169;-80
2022/06/17 10:48:22;;;;;;;6.72;3.50;;;;;;;22.78;56.13;102274.75;4882240;29;20032;-80
2022/06/17 10:50:47;;;;;;;5.75;3.22;;;;;;;22.81;56.07;102270.03;4861924;29;20047;-79
2022/06/17 10:53:31;;;;;;;3.28;2.90;;;;;;;22.85;56.20;102273.34;4877600;29;20041;-80
2022/06/17 10:56:00;;;;;;;8.68;3.50;;;;;;;22.91;56.40;102264.91;4874982;29;20044;-79
2022/06/17 10:58:29;;;;;;;5.25;3.38;;;;;;;22.98;56.12;102266.19;4861135;29;20025;-79
2022/06/17 11:01:01;;;;;;;;;;;;;;;23.08;55.28;102255.72;4872118;29;20085;-80
2022/06/17 11:03:35;;;;;;;4.75;3.13;;;;;;;23.18;54.91;102247.91;4866515;29;19915;-79
2022/06/17 11:06:06;;;;;;;5.32;3.30;;;;;;;23.22;55.28;102246.72;4879197;29;20537;-79
2022/06/17 11:08:40;;;;;;;6.78;3.35;;;;;;;23.27;54.86;102249.91;4868844;29;20041;-80
2022/06/17 11:13:55;;;;;;;5.30;2.92;;;;;;;23.38;55.53;102233.09;4880407;29;20096;-80
2022/06/17 11:16:23;;;;;;;3.25;2.95;;;;;;;23.45;56.02;102223.66;4880196;29;20041;-80
2022/06/17 11:18:57;;;;;;;6.05;3.28;;;;;;;23.52;55.05;102219.56;4881182;29;20332;-79
2022/06/17 11:21:29;;;;;;;5.47;3.58;;;;;;;23.57;54.54;102222.72;4882313;29;20071;-80
2022/06/17 11:23:58;;;;;;;6.22;3.13;;;;;;;23.62;55.12;102210.84;4875877;29;20033;-80
2022/06/17 11:26:30;;;;;;;5.43;2.78;;;;;;;23.68;52.25;102213.91;4887168;29;20024;-80
2022/06/17 11:29:04;;;;;;;11.90;3.00;;;;;;;23.73;53.00;102221.59;4868402;29;20105;-80
2022/06/17 11:31:34;;;;;;;4.53;2.83;;;;;;;23.77;53.11;102225.75;4879830;29;20040;-79
2022/06/17 11:34:13;;;;;;;2.22;2.03;;;;;;;23.82;53.46;102225.44;4880270;29;20096;-80
2022/06/17 11:37:08;;;;;;;4.50;2.65;;;;;;;23.88;53.33;102227.66;4877778;29;20107;-80
2022/06/17 11:39:36;;;;;;;6.97;3.00;;;;;;;23.93;53.12;102231.69;4872919;29;20076;-79
2022/06/17 11:42:24;;;;;;;4.45;2.72;;;;;;;23.96;52.74;102227.94;4877197;29;20041;-80
2022/06/17 11:45:05;;;;;;;3.70;2.70;;;;;;;23.96;52.68;102235.97;4861362;29;20457;-80
2022/06/17 11:47:34;;;;;;;2.75;2.45;;;;;;;23.99;52.73;102242.88;4880274;29;20432;-80
2022/06/17 11:50:18;;;;;;;6.00;2.67;;;;;;;24.02;53.81;102240.00;4885194;29;20221;-80
2022/06/17 11:52:44;;;;;;;6.00;2.55;;;;;;;24.06;52.64;102228.06;4866955;29;20084;-80